createdAt,value
2023-04-30T00:00:25.121Z,71.82
2023-04-30T00:02:51.807Z,71.86
2023-04-30T00:05:18.817Z,72.02
2023-04-30T00:07:45.523Z,72.01
2023-04-30T00:10:12.272Z,72.10
2023-04-30T00:12:39.235Z,72.11
2023-04-30T00:15:06.830Z,72.10
2023-04-30T00:17:33.797Z,72.20
2023-04-30T00:20:01.209Z,72.28
2023-04-30T00:22:27.973Z,72.20
2023-04-30T00:24:54.793Z,72.29
2023-04-30T00:27:21.780Z,72.41
2023-04-30T00:29:48.491Z,72.40
2023-04-30T00:32:15.438Z,72.60
2023-04-30T00:34:42.355Z,72.54
2023-04-30T00:37:09.108Z,72.69
2023-04-30T00:39:35.850Z,72.75
2023-04-30T00:42:02.912Z,72.70
2023-04-30T00:44:29.524Z,72.89
2023-04-30T00:46:56.257Z,72.92
2023-04-30T00:49:22.931Z,73.09
2023-04-30T00:51:49.704Z,73.19
2023-04-30T00:54:16.374Z,73.11
2023-04-30T00:56:42.989Z,73.10
2023-04-30T00:59:09.661Z,73.30
2023-04-30T01:01:36.761Z,73.44
2023-04-30T01:04:03.375Z,73.56
2023-04-30T01:06:30.161Z,73.74
2023-04-30T01:08:57.386Z,74.03
2023-04-30T01:11:46.090Z,73.98
2023-04-30T01:14:29.323Z,74.03
2023-04-30T01:17:08.671Z,73.87
2023-04-30T01:19:38.312Z,73.80
2023-04-30T01:22:05.154Z,73.55
2023-04-30T01:24:43.517Z,73.73
2023-04-30T01:27:14.613Z,73.62
2023-04-30T01:29:42.781Z,73.55
2023-04-30T01:32:12.445Z,73.66
2023-04-30T01:34:39.967Z,73.61
2023-04-30T01:37:16.580Z,73.65
2023-04-30T01:40:23.020Z,73.73
2023-04-30T01:43:05.752Z,73.78
2023-04-30T01:45:51.193Z,73.96
2023-04-30T01:48:40.273Z,73.77
2023-04-30T01:51:28.615Z,74.07
2023-04-30T01:53:58.015Z,74.07
2023-04-30T01:56:31.745Z,74.07
2023-04-30T01:58:59.042Z,74.16
2023-04-30T02:01:29.990Z,74.15
2023-04-30T02:03:56.984Z,73.99
2023-04-30T02:06:28.614Z,74.25
2023-04-30T02:08:56.931Z,74.15
2023-04-30T02:11:24.792Z,74.19
2023-04-30T02:13:51.411Z,74.32
2023-04-30T02:16:18.135Z,74.43
2023-04-30T02:18:45.945Z,74.34
2023-04-30T02:21:12.735Z,74.48
2023-04-30T02:23:39.377Z,74.54
2023-04-30T02:26:06.098Z,74.47
2023-04-30T02:28:32.753Z,74.63
2023-04-30T02:30:59.571Z,74.73
2023-04-30T02:33:26.396Z,74.71
2023-04-30T02:35:55.224Z,74.76
2023-04-30T02:38:21.884Z,74.91
2023-04-30T02:40:48.704Z,75.15
2023-04-30T02:43:15.400Z,75.07
2023-04-30T02:45:42.125Z,75.30
2023-04-30T02:48:08.821Z,75.43
2023-04-30T02:50:35.626Z,75.68
2023-04-30T02:53:02.342Z,75.66
2023-04-30T02:55:28.982Z,75.73
2023-04-30T02:57:56.301Z,75.90
2023-04-30T03:00:23.478Z,75.81
2023-04-30T03:02:50.253Z,76.09
2023-04-30T03:05:17.823Z,76.19
2023-04-30T03:07:44.486Z,76.47
2023-04-30T03:10:11.125Z,76.59
2023-04-30T03:12:37.958Z,76.77
2023-04-30T03:15:05.576Z,77.14
2023-04-30T03:17:32.267Z,77.19
2023-04-30T03:19:59.037Z,77.19
2023-04-30T03:22:26.852Z,77.17
2023-04-30T03:24:53.519Z,77.17
2023-04-30T03:27:20.174Z,77.21
2023-04-30T03:29:47.171Z,77.34
2023-04-30T03:32:13.787Z,77.44
2023-04-30T03:34:40.668Z,77.30
2023-04-30T03:37:07.284Z,77.49
2023-04-30T03:39:33.910Z,77.57
2023-04-30T03:42:01.807Z,77.68
2023-04-30T03:44:28.698Z,77.75
2023-04-30T03:46:55.568Z,77.91
2023-04-30T03:49:22.227Z,78.15
2023-04-30T03:51:49.016Z,78.15
2023-04-30T03:54:15.634Z,78.16
2023-04-30T03:56:42.412Z,78.18
2023-04-30T03:59:09.134Z,78.28
2023-04-30T04:01:36.156Z,78.07
2023-04-30T04:04:02.888Z,78.16
2023-04-30T04:06:30.015Z,78.04
2023-04-30T04:08:56.740Z,78.02
2023-04-30T04:11:23.360Z,77.87
2023-04-30T04:13:50.086Z,77.82
2023-04-30T04:16:16.875Z,77.70
2023-04-30T04:18:44.471Z,77.59
2023-04-30T04:21:11.904Z,77.49
2023-04-30T04:23:39.329Z,77.46
2023-04-30T04:26:05.956Z,77.42
2023-04-30T04:28:32.772Z,77.24
2023-04-30T04:30:59.768Z,77.16
2023-04-30T04:33:26.458Z,76.86
2023-04-30T04:35:53.117Z,76.82
2023-04-30T04:38:19.777Z,76.64
2023-04-30T04:40:53.578Z,76.48
2023-04-30T04:43:20.405Z,76.26
2023-04-30T04:45:48.062Z,76.12
2023-04-30T04:48:15.187Z,75.85
2023-04-30T04:50:41.993Z,75.52
2023-04-30T04:53:08.702Z,75.16
2023-04-30T04:55:36.041Z,75.03
2023-04-30T04:58:02.684Z,74.78
2023-04-30T05:00:29.993Z,74.65
2023-04-30T05:02:57.026Z,74.40
2023-04-30T05:05:23.928Z,74.12
2023-04-30T05:07:52.511Z,73.90
2023-04-30T05:10:19.376Z,73.62
2023-04-30T05:12:46.242Z,73.47
2023-04-30T05:15:12.961Z,73.45
2023-04-30T05:17:39.760Z,73.36
2023-04-30T05:20:07.583Z,72.84
2023-04-30T05:22:34.553Z,72.81
2023-04-30T05:25:01.196Z,72.69
2023-04-30T05:27:27.898Z,72.51
2023-04-30T05:29:54.766Z,72.07
2023-04-30T05:32:23.095Z,71.25
2023-04-30T05:34:50.157Z,70.22
2023-04-30T05:37:19.482Z,67.88
2023-04-30T05:39:46.781Z,66.85
2023-04-30T05:42:13.417Z,64.35
2023-04-30T05:44:41.029Z,63.02
2023-04-30T05:47:07.818Z,62.12
2023-04-30T05:49:36.015Z,60.26
2023-04-30T05:52:03.775Z,57.93
2023-04-30T05:54:31.193Z,55.20
2023-04-30T05:56:57.962Z,54.22
2023-04-30T05:59:24.696Z,53.91
2023-04-30T06:01:52.190Z,52.63
2023-04-30T06:04:18.904Z,51.59
2023-04-30T06:06:45.847Z,51.20
2023-04-30T06:09:12.710Z,51.15
2023-04-30T06:11:41.663Z,50.45
2023-04-30T06:14:10.114Z,50.63
2023-04-30T06:16:36.948Z,49.91
2023-04-30T06:19:03.900Z,48.28
2023-04-30T06:21:30.834Z,46.88
2023-04-30T06:23:57.496Z,46.17
2023-04-30T06:26:24.143Z,45.88
2023-04-30T06:28:50.918Z,45.38
2023-04-30T06:31:17.552Z,45.11
2023-04-30T06:33:44.583Z,44.46
2023-04-30T06:36:11.295Z,44.68
2023-04-30T06:38:37.890Z,43.64
2023-04-30T06:41:04.601Z,43.71
2023-04-30T06:43:31.307Z,43.05
2023-04-30T06:45:57.968Z,43.32
2023-04-30T06:48:24.951Z,43.07
2023-04-30T06:50:51.605Z,43.00
2023-04-30T06:53:18.408Z,42.06
2023-04-30T06:55:46.538Z,41.07
2023-04-30T06:58:13.223Z,41.64
2023-04-30T07:00:39.992Z,41.18
2023-04-30T07:03:06.715Z,39.96
2023-04-30T07:05:33.543Z,39.35
2023-04-30T07:08:01.609Z,39.03
2023-04-30T07:10:28.319Z,39.44
2023-04-30T07:12:55.565Z,39.20
2023-04-30T07:15:22.197Z,39.37
2023-04-30T07:17:49.005Z,38.76
2023-04-30T14:41:44.348Z,34.02
2023-04-30T14:44:11.114Z,34.12
2023-04-30T14:46:37.927Z,34.07
2023-04-30T14:49:05.024Z,34.11
2023-04-30T14:51:32.433Z,33.91
2023-04-30T14:53:59.412Z,33.95
2023-04-30T14:56:26.111Z,34.26
2023-04-30T14:58:53.668Z,34.28
2023-04-30T15:01:20.355Z,34.60
2023-04-30T15:03:47.313Z,34.32
2023-04-30T15:06:14.346Z,33.87
2023-04-30T15:08:41.362Z,33.59
2023-04-30T15:11:10.404Z,33.28
2023-04-30T15:13:37.664Z,33.15
2023-04-30T15:16:05.109Z,33.30
2023-04-30T15:18:32.395Z,33.42
2023-04-30T15:20:59.222Z,33.68
2023-04-30T15:23:25.943Z,33.32
2023-04-30T15:25:53.517Z,33.25
2023-04-30T15:28:20.678Z,33.19
2023-04-30T15:30:47.317Z,33.06
2023-04-30T15:33:14.062Z,33.23
2023-04-30T15:35:41.653Z,33.29
2023-04-30T15:38:08.312Z,33.34
2023-04-30T15:40:36.243Z,33.62
2023-04-30T15:43:02.873Z,33.93
2023-04-30T15:45:29.513Z,33.82
2023-04-30T15:47:56.262Z,33.89
2023-04-30T15:50:23.048Z,34.14
2023-04-30T15:52:49.738Z,34.54
2023-04-30T15:55:16.378Z,34.44
2023-04-30T15:57:43.178Z,34.46
2023-04-30T16:00:11.241Z,34.79
2023-04-30T16:02:41.354Z,34.97
2023-04-30T16:05:09.074Z,35.14
2023-04-30T16:07:36.221Z,35.26
2023-04-30T16:10:03.387Z,35.34
2023-04-30T16:12:30.220Z,35.46
2023-04-30T16:14:57.001Z,35.59
2023-04-30T16:17:24.564Z,35.81
2023-04-30T16:19:51.453Z,36.00
2023-04-30T16:22:18.633Z,36.46
2023-04-30T16:24:45.550Z,36.20
2023-04-30T16:27:12.492Z,36.43
2023-04-30T16:29:39.643Z,36.39
2023-04-30T16:32:06.470Z,36.55
2023-04-30T16:34:33.304Z,36.62
2023-04-30T16:37:00.223Z,36.73
2023-04-30T16:39:26.962Z,36.84
2023-04-30T16:41:54.267Z,36.61
2023-04-30T16:44:21.905Z,36.75
2023-04-30T16:46:49.386Z,37.05
2023-04-30T16:49:16.722Z,37.16
2023-04-30T16:51:43.571Z,37.16
2023-04-30T16:54:10.568Z,37.55
2023-04-30T16:56:37.296Z,37.55
2023-04-30T16:59:03.902Z,37.65
2023-04-30T17:01:30.839Z,37.48
2023-04-30T17:03:57.753Z,37.62
2023-04-30T17:06:24.529Z,37.64
2023-04-30T17:08:53.319Z,38.01
2023-04-30T17:11:21.297Z,38.14
2023-04-30T17:13:47.895Z,38.74
2023-04-30T17:16:14.643Z,39.08
2023-04-30T17:18:41.801Z,39.67
2023-04-30T17:21:08.493Z,40.34
2023-04-30T17:23:35.195Z,41.45
2023-04-30T17:26:03.878Z,42.10
2023-04-30T17:28:30.790Z,42.52
2023-04-30T17:30:58.057Z,42.77
2023-04-30T17:33:26.728Z,42.80
2023-04-30T17:35:53.438Z,43.37
2023-04-30T17:38:20.104Z,43.92
2023-04-30T17:40:46.737Z,44.38
2023-04-30T17:43:13.845Z,45.07
2023-04-30T17:45:40.525Z,45.46
2023-04-30T17:48:07.950Z,45.64
2023-04-30T17:50:34.996Z,45.88
2023-04-30T17:53:02.199Z,46.33
2023-04-30T17:55:28.927Z,46.82
2023-04-30T17:57:55.923Z,47.39
2023-04-30T18:00:23.574Z,47.77
2023-04-30T18:02:51.170Z,48.18
2023-04-30T18:05:18.024Z,48.39
2023-04-30T18:07:44.708Z,48.47
2023-04-30T18:10:11.409Z,48.54
2023-04-30T18:12:38.385Z,48.90
2023-04-30T18:15:06.830Z,49.52
2023-04-30T18:17:37.224Z,50.56
2023-04-30T18:20:04.719Z,51.50
2023-04-30T18:22:32.049Z,52.11
2023-04-30T18:24:59.578Z,52.56
2023-04-30T18:27:26.267Z,53.05
2023-04-30T18:29:52.962Z,53.44
2023-04-30T18:32:19.896Z,53.68
2023-04-30T18:34:47.221Z,54.01
2023-04-30T18:37:14.048Z,53.96
2023-04-30T18:39:41.211Z,53.87
2023-04-30T18:42:09.535Z,54.00
2023-04-30T18:44:36.611Z,54.15
2023-04-30T18:47:04.770Z,54.14
2023-04-30T18:49:32.208Z,54.39
2023-04-30T18:52:00.880Z,54.58
2023-04-30T18:54:28.301Z,54.54
2023-04-30T18:56:55.168Z,54.76
2023-04-30T18:59:22.772Z,54.91
2023-04-30T19:01:50.129Z,55.00
2023-04-30T19:04:17.026Z,55.35
2023-04-30T19:06:44.642Z,55.69
2023-04-30T19:09:11.900Z,56.03
2023-04-30T19:11:38.591Z,56.25
2023-04-30T19:14:06.388Z,56.40
2023-04-30T19:16:33.249Z,56.66
2023-04-30T19:19:00.112Z,56.91
2023-04-30T19:21:28.522Z,57.04
2023-04-30T19:23:57.372Z,57.21
2023-04-30T19:26:25.470Z,57.29
2023-04-30T19:32:37.662Z,57.72
2023-04-30T19:35:05.008Z,58.09
2023-04-30T19:37:31.716Z,58.41
2023-04-30T19:39:58.374Z,58.63
2023-04-30T19:42:25.171Z,58.95
2023-04-30T19:44:53.033Z,59.10
2023-04-30T19:47:19.822Z,59.31
2023-04-30T19:49:47.458Z,59.38
2023-04-30T19:52:14.769Z,59.52
2023-04-30T19:54:48.568Z,59.55
2023-04-30T19:57:15.725Z,59.64
2023-04-30T19:59:43.013Z,59.74
2023-04-30T20:02:09.970Z,59.94
2023-04-30T20:04:37.055Z,60.08
2023-04-30T20:07:04.048Z,60.46
2023-04-30T20:09:30.965Z,60.68
2023-04-30T20:11:57.793Z,60.80
2023-04-30T20:14:24.524Z,60.96
2023-04-30T20:16:55.036Z,61.11
2023-04-30T20:19:22.172Z,61.42
2023-04-30T20:21:52.288Z,61.60
2023-04-30T20:24:19.247Z,61.74
2023-04-30T20:26:45.956Z,61.92
2023-04-30T20:29:12.830Z,62.01
2023-04-30T20:31:40.433Z,62.17
2023-04-30T20:34:07.421Z,62.46
2023-04-30T20:36:34.388Z,62.67
2023-04-30T20:39:01.427Z,62.86
2023-04-30T20:41:30.449Z,63.10
2023-04-30T20:43:59.993Z,63.17
2023-04-30T20:46:28.379Z,63.27
2023-04-30T20:49:01.111Z,63.22
2023-04-30T20:51:28.634Z,63.17
2023-04-30T20:53:55.449Z,63.37
2023-04-30T20:56:22.385Z,63.50
2023-04-30T20:58:49.200Z,63.58
2023-04-30T21:01:16.066Z,63.76
2023-04-30T21:03:42.836Z,63.76
2023-04-30T21:06:10.990Z,63.67
2023-04-30T21:08:37.790Z,63.93
2023-04-30T21:11:04.447Z,63.93
2023-04-30T21:13:31.253Z,64.12
2023-04-30T21:15:58.022Z,64.26
2023-04-30T21:18:27.269Z,64.47
2023-04-30T21:20:54.014Z,64.73
2023-04-30T21:23:20.641Z,64.93
2023-04-30T21:25:47.609Z,65.22
2023-04-30T21:28:14.637Z,65.43
2023-04-30T21:30:41.388Z,65.67
2023-04-30T21:33:08.534Z,65.99
2023-04-30T21:35:35.280Z,66.34
2023-04-30T21:38:02.094Z,66.50
2023-04-30T21:40:32.194Z,66.74
2023-04-30T21:42:59.315Z,66.83
2023-04-30T21:45:25.989Z,66.94
2023-04-30T21:47:52.808Z,67.07
2023-04-30T21:50:19.461Z,67.27
2023-04-30T21:52:46.114Z,67.36
2023-04-30T21:55:12.790Z,67.52
2023-04-30T21:57:39.696Z,67.97
2023-04-30T22:00:07.455Z,68.18
2023-04-30T22:02:34.972Z,68.65
2023-04-30T22:05:02.292Z,68.85
2023-04-30T22:07:29.465Z,68.79
2023-04-30T22:09:57.580Z,68.78
2023-04-30T22:12:25.273Z,68.75
2023-04-30T22:14:55.312Z,68.66
2023-04-30T22:17:22.680Z,68.80
2023-04-30T22:19:49.550Z,68.76
2023-04-30T22:22:16.619Z,68.77
2023-04-30T22:24:43.282Z,68.87
2023-04-30T22:27:09.904Z,68.98
2023-04-30T22:29:36.776Z,69.10
2023-04-30T22:32:04.261Z,68.97
2023-04-30T22:34:31.217Z,69.03
2023-04-30T22:36:57.907Z,69.13
2023-04-30T22:39:24.577Z,69.22
2023-04-30T22:41:51.304Z,69.14
2023-04-30T22:44:18.062Z,69.41
2023-04-30T22:46:44.726Z,69.50
2023-04-30T22:49:17.087Z,69.65
2023-04-30T22:51:54.181Z,69.93
2023-04-30T22:54:20.882Z,70.14
2023-04-30T22:56:47.491Z,70.26
2023-04-30T22:59:14.173Z,70.35
2023-04-30T23:01:40.846Z,70.64
2023-04-30T23:04:07.501Z,70.71
2023-04-30T23:06:34.301Z,70.90
2023-04-30T23:09:01.000Z,71.25
2023-04-30T23:11:27.655Z,71.41
2023-04-30T23:13:54.339Z,71.53
2023-04-30T23:16:20.984Z,71.39
2023-04-30T23:18:48.855Z,71.59
2023-04-30T23:21:15.695Z,71.48
2023-04-30T23:23:42.300Z,71.55
2023-04-30T23:26:08.905Z,71.62
2023-04-30T23:28:37.973Z,71.72
2023-04-30T23:31:04.651Z,71.78
2023-04-30T23:33:31.267Z,71.92
2023-04-30T23:35:57.952Z,71.98
2023-04-30T23:38:24.556Z,71.88
2023-04-30T23:40:51.256Z,72.04
2023-04-30T23:43:18.163Z,72.16
2023-04-30T23:45:44.841Z,72.35
2023-04-30T23:48:11.634Z,72.38
2023-04-30T23:50:38.410Z,72.51
2023-04-30T23:53:05.232Z,72.76
2023-04-30T23:55:31.898Z,73.08
2023-04-30T23:57:58.550Z,73.44
